Time;durP1;ratioP1;P1;durP2;ratioP2;P2;SDS_P1;SDS_P2;PMS_P1;PMS_P2;Temp;Humidity;BMP_temperature;BMP_pressure;BME280_temperature;BME280_humidity;BME280_pressure;Samples;Min_cycle;Max_cycle;Signal;HPM_P1;HPM_P2
2021/04/03 00:00:50;;;;;;;30.20;17.42;;;;;;;2.42;78.70;94009.33;1775678;79;21073;-56
2021/04/03 00:03:19;;;;;;;24.35;16.30;;;;;;;2.51;79.04;94009.55;1776055;80;21474;-57
2021/04/03 00:05:47;;;;;;;29.37;19.80;;;;;;;2.55;78.22;94013.58;1776239;80;21041;-57
2021/04/03 00:08:15;;;;;;;23.12;14.85;;;;;;;2.49;78.05;94017.95;1776144;80;21123;-55
2021/04/03 00:10:50;;;;;;;23.65;15.75;;;;;;;2.44;78.14;94017.83;1776107;79;21209;-55
2021/04/03 00:13:20;;;;;;;16.30;11.57;;;;;;;2.38;78.01;94015.41;1776121;80;21069;-55
2021/04/03 00:15:47;;;;;;;21.17;14.35;;;;;;;2.33;77.97;94014.51;1775827;80;21084;-56
2021/04/03 00:18:16;;;;;;;17.10;12.93;;;;;;;2.30;78.18;94015.94;1776216;79;21093;-56
2021/04/03 00:20:46;;;;;;;16.87;12.60;;;;;;;2.43;78.41;94011.44;1776145;80;21541;-56
2021/04/03 00:23:16;;;;;;;21.17;14.07;;;;;;;2.56;78.32;94011.03;1776115;80;21114;-55
2021/04/03 00:25:43;;;;;;;22.20;12.68;;;;;;;2.72;78.02;94005.11;1776029;79;21151;-55
2021/04/03 00:28:11;;;;;;;16.85;10.70;;;;;;;2.79;77.21;93997.43;1775947;79;21171;-57
2021/04/03 00:30:39;;;;;;;12.13;9.55;;;;;;;2.76;76.97;93998.27;1776069;80;21453;-56
2021/04/03 00:33:08;;;;;;;16.20;12.07;;;;;;;2.84;76.48;93998.33;1776153;80;21068;-56
2021/04/03 00:35:38;;;;;;;27.65;16.50;;;;;;;2.87;76.16;94010.47;1775825;79;21377;-56
2021/04/03 00:38:10;;;;;;;35.65;20.52;;;;;;;2.88;75.91;94000.38;1776115;80;21067;-56
2021/04/03 00:40:43;;;;;;;28.02;16.00;;;;;;;2.77;75.86;94001.94;1775936;80;21080;-56
2021/04/03 00:43:17;;;;;;;30.77;17.00;;;;;;;2.64;76.11;93998.28;1775921;80;21168;-56
2021/04/03 00:45:46;;;;;;;25.50;16.15;;;;;;;2.53;76.40;94001.02;1776136;80;21148;-56
2021/04/03 00:48:14;;;;;;;24.90;16.40;;;;;;;2.47;76.85;93987.75;1776174;79;22302;-55
2021/04/03 00:50:48;;;;;;;22.60;14.63;;;;;;;2.49;76.94;93977.98;1776048;80;21112;-55
2021/04/03 00:53:22;;;;;;;21.57;15.43;;;;;;;2.48;76.73;93977.06;1775715;79;21070;-56
2021/04/03 00:55:52;;;;;;;24.47;15.72;;;;;;;2.39;76.91;93974.88;1775933;80;21603;-55
2021/04/03 00:58:22;;;;;;;26.68;16.90;;;;;;;2.34;77.10;93969.91;1765462;80;21179;-56
2021/04/03 01:00:50;;;;;;;26.77;17.30;;;;;;;2.34;77.22;93961.02;1776160;80;21265;-57
2021/04/03 01:03:22;;;;;;;19.42;14.45;;;;;;;2.36;77.40;93960.02;1775988;80;21183;-55
2021/04/03 01:05:52;;;;;;;23.38;14.33;;;;;;;2.43;77.41;93957.95;1741114;80;21076;-55
2021/04/03 01:08:20;;;;;;;26.23;16.75;;;;;;;2.48;77.57;93955.35;1776261;80;21477;-55
2021/04/03 01:10:51;;;;;;;23.60;14.33;;;;;;;2.47;77.12;93946.43;1776055;80;21048;-56
2021/04/03 01:13:53;;;;;;;33.15;17.92;;;;;;;2.41;76.93;93941.89;1776107;80;21603;-55
2021/04/03 01:17:00;;;;;;;27.15;16.23;;;;;;;2.41;77.12;93949.45;1888455;76;22563;-56
2021/04/03 01:20:04;;;;;;;20.77;14.63;;;;;;;2.40;77.39;93944.42;1775324;80;21076;-56
2021/04/03 01:22:54;;;;;;;23.10;14.40;;;;;;;2.54;77.14;93946.90;1741741;81;22204;-55
2021/04/03 01:26:14;;;;;;;23.57;15.00;;;;;;;2.53;76.78;93939.94;1774950;80;21166;-56
2021/04/03 01:29:09;;;;;;;18.20;12.90;;;;;;;2.46;76.85;93929.97;1773346;81;21173;-56
2021/04/03 01:31:39;;;;;;;25.32;14.98;;;;;;;2.47;77.02;93923.36;1775076;80;21087;-56
2021/04/03 01:34:14;;;;;;;17.27;12.28;;;;;;;2.57;76.77;93921.63;1766344;81;21044;-56
2021/04/03 01:36:42;;;;;;;16.15;12.23;;;;;;;2.57;76.43;93911.55;1775251;80;21372;-55
2021/04/03 01:39:13;;;;;;;15.25;11.85;;;;;;;2.56;76.43;93906.53;1743041;82;20945;-56
2021/04/03 01:41:45;;;;;;;17.85;11.65;;;;;;;2.60;76.17;93901.79;1747199;80;21076;-56
2021/04/03 01:44:22;;;;;;;13.72;11.45;;;;;;;2.57;75.93;93898.56;1743273;82;21687;-55
2021/04/03 01:46:50;;;;;;;12.05;10.70;;;;;;;2.53;75.77;93899.22;1747101;80;21072;-56
2021/04/03 01:49:21;;;;;;;18.75;11.93;;;;;;;2.51;75.99;93902.34;1743102;82;21209;-56
2021/04/03 01:51:49;;;;;;;14.78;10.35;;;;;;;2.58;75.83;93893.30;1775106;80;21152;-55
2021/04/03 01:54:21;;;;;;;16.55;12.88;;;;;;;2.63;75.69;93895.52;1742721;82;21100;-56
2021/04/03 01:56:51;;;;;;;14.25;11.63;;;;;;;2.66;75.41;93898.18;1775173;80;21083;-55
2021/04/03 01:59:21;;;;;;;15.08;11.25;;;;;;;2.63;75.29;93895.52;1716505;82;21068;-55
2021/04/03 02:01:54;;;;;;;14.10;10.50;;;;;;;2.48;75.16;93898.36;1777398;80;21273;-56
2021/04/03 02:04:23;;;;;;;12.68;10.63;;;;;;;2.33;75.41;93903.25;1775225;80;21458;-55
2021/04/03 02:06:51;;;;;;;15.88;12.37;;;;;;;2.19;75.80;93908.17;1742872;82;21076;-55
2021/04/03 02:09:24;;;;;;;15.93;10.85;;;;;;;2.15;76.16;93899.34;1772187;80;21159;-55
2021/04/03 02:11:53;;;;;;;16.02;9.75;;;;;;;2.19;76.02;93898.68;1742885;82;21147;-55
2021/04/03 02:14:40;;;;;;;17.12;11.57;;;;;;;2.12;76.08;93891.42;1774271;80;21712;-55
2021/04/03 02:17:10;;;;;;;12.90;10.98;;;;;;;2.01;76.51;93890.86;1742815;82;21088;-56
2021/04/03 02:19:38;;;;;;;13.78;9.95;;;;;;;1.96;76.64;93890.56;1775068;80;21508;-55
2021/04/03 02:22:08;;;;;;;14.33;11.75;;;;;;;1.95;76.87;93884.96;1816024;79;21056;-55
2021/04/03 02:24:37;;;;;;;15.78;11.85;;;;;;;1.94;77.04;93892.31;1815841;79;21552;-56
2021/04/03 02:27:07;;;;;;;16.55;11.63;;;;;;;2.00;77.22;93894.72;1815532;79;21190;-55
2021/04/03 02:29:35;;;;;;;16.25;11.48;;;;;;;2.09;77.03;93897.69;1786414;79;21512;-55
2021/04/03 02:32:07;;;;;;;17.00;12.03;;;;;;;2.13;76.94;93892.95;1815692;78;21075;-55
2021/04/03 02:34:36;;;;;;;15.45;10.30;;;;;;;2.18;77.04;93897.89;1786613;79;21590;-55
2021/04/03 02:37:07;;;;;;;14.43;10.80;;;;;;;2.26;76.91;93894.47;1811890;79;21048;-55
2021/04/03 02:39:37;;;;;;;11.22;9.75;;;;;;;2.24;76.59;93895.48;1815706;79;21369;-55
2021/04/03 02:42:16;;;;;;;13.28;9.43;;;;;;;2.19;76.52;93912.24;1815720;78;21083;-55
2021/04/03 02:44:48;;;;;;;8.78;7.97;;;;;;;2.22;76.34;93912.77;1815755;78;21508;-56
2021/04/03 02:47:30;;;;;;;9.58;8.63;;;;;;;2.18;75.63;93912.06;1815757;79;21036;-56
2021/04/03 02:50:05;;;;;;;8.75;7.95;;;;;;;2.04;75.58;93911.72;1815342;79;21536;-56
2021/04/03 02:52:36;;;;;;;9.03;8.13;;;;;;;1.98;75.73;93916.67;1815763;79;21257;-56
2021/04/03 02:55:06;;;;;;;9.50;7.90;;;;;;;1.95;75.82;93920.22;1786986;79;21104;-56
2021/04/03 02:57:36;;;;;;;11.20;9.30;;;;;;;1.98;75.81;93928.27;1815645;78;21119;-56
2021/04/03 03:00:08;;;;;;;11.10;10.00;;;;;;;1.95;75.58;93935.13;1754283;79;21103;-56
2021/04/03 03:02:35;;;;;;;10.38;8.83;;;;;;;1.86;76.02;93940.30;1786276;78;21871;-55
2021/04/03 03:05:09;;;;;;;13.58;10.30;;;;;;;1.87;76.29;93943.18;1815658;79;21271;-56
2021/04/03 03:07:42;;;;;;;12.15;10.58;;;;;;;1.88;76.42;93928.45;1786728;79;21048;-56
2021/04/03 03:10:16;;;;;;;13.62;10.55;;;;;;;1.91;76.52;93910.77;1815671;79;21032;-56
2021/04/03 03:12:45;;;;;;;14.47;10.68;;;;;;;1.98;76.67;93909.89;1815602;78;21087;-56
2021/04/03 03:15:16;;;;;;;21.95;11.75;;;;;;;2.11;76.50;93906.17;1815637;79;21111;-54
2021/04/03 03:17:45;;;;;;;13.03;10.78;;;;;;;2.18;76.51;93901.22;1794299;78;21205;-56
2021/04/03 03:20:15;;;;;;;13.05;11.00;;;;;;;2.26;76.46;93892.54;1819134;78;21166;-56
2021/04/03 03:22:43;;;;;;;11.30;9.93;;;;;;;2.39;76.31;93880.48;1819189;78;21603;-56
2021/04/03 03:25:11;;;;;;;11.88;10.63;;;;;;;2.48;76.20;93876.64;1818949;78;21047;-58
2021/04/03 03:27:43;;;;;;;11.90;10.03;;;;;;;2.58;75.94;93875.08;1819071;78;21084;-55
2021/04/03 03:30:17;;;;;;;14.78;11.10;;;;;;;2.67;75.63;93879.95;1818903;78;22225;-56
2021/04/03 03:32:46;;;;;;;21.17;11.55;;;;;;;2.77;75.19;93884.39;1819104;78;21512;-57
2021/04/03 03:35:15;;;;;;;20.27;11.05;;;;;;;2.75;74.71;93882.69;1818904;78;21102;-57
2021/04/03 03:37:45;;;;;;;13.98;11.63;;;;;;;2.61;74.67;93882.96;1794089;78;21084;-57
2021/04/03 03:40:15;;;;;;;17.50;12.37;;;;;;;2.48;74.95;93879.36;1819095;78;21104;-56
2021/04/03 03:42:44;;;;;;;13.03;11.03;;;;;;;2.49;75.04;93881.64;1819187;78;21324;-56
2021/04/03 03:45:14;;;;;;;14.65;11.93;;;;;;;2.50;75.04;93883.77;1818946;78;21138;-56
2021/04/03 03:47:44;;;;;;;14.23;10.50;;;;;;;2.44;75.02;93890.27;1818860;78;21114;-56
2021/04/03 03:50:13;;;;;;;13.30;10.08;;;;;;;2.36;75.11;93883.42;1819044;78;21028;-57
2021/04/03 03:52:42;;;;;;;14.47;11.38;;;;;;;2.33;74.95;93883.51;1819147;78;21807;-56
2021/04/03 03:55:16;;;;;;;18.73;11.63;;;;;;;2.24;75.17;93873.20;1819051;78;21447;-56
2021/04/03 03:57:44;;;;;;;12.45;10.40;;;;;;;2.21;75.21;93866.47;1819264;78;21099;-57
2021/04/03 04:00:14;;;;;;;14.58;11.15;;;;;;;2.21;75.52;93863.19;1819167;78;21454;-55
2021/04/03 04:02:42;;;;;;;10.85;9.75;;;;;;;2.31;75.50;93857.39;1818835;78;21032;-57
2021/04/03 04:05:14;;;;;;;11.83;9.90;;;;;;;2.47;75.23;93865.61;1818436;78;21414;-56
2021/04/03 04:07:44;;;;;;;11.75;10.18;;;;;;;2.61;74.57;93885.67;1818134;77;21201;-56
2021/04/03 04:10:14;;;;;;;12.88;9.78;;;;;;;2.65;74.39;93902.08;1819076;78;21037;-57
2021/04/03 04:12:44;;;;;;;21.85;12.18;;;;;;;2.71;73.89;93902.36;1754292;80;21183;-56
2021/04/03 04:15:13;;;;;;;20.48;12.55;;;;;;;2.64;73.82;93909.27;1755555;81;21186;-60
2021/04/03 04:17:42;;;;;;;17.37;10.75;;;;;;;2.61;73.72;93910.11;1751196;81;21457;-57
2021/04/03 04:20:13;;;;;;;14.93;10.28;;;;;;;2.59;73.66;93900.26;1751488;82;22350;-57
2021/04/03 04:22:43;;;;;;;13.32;9.23;;;;;;;2.56;73.62;93901.88;1751608;81;21083;-56
2021/04/03 04:25:12;;;;;;;12.28;9.38;;;;;;;2.58;73.75;93889.23;1751414;82;21064;-56
2021/04/03 04:27:42;;;;;;;16.87;9.95;;;;;;;2.67;73.75;93882.67;1751165;82;21856;-57
2021/04/03 04:30:12;;;;;;;12.43;9.10;;;;;;;2.80;73.72;93878.90;1751287;82;21457;-56
2021/04/03 04:32:43;;;;;;;10.05;9.05;;;;;;;2.93;73.43;93874.38;1724420;82;21219;-57
2021/04/03 04:35:14;;;;;;;9.70;8.68;;;;;;;3.00;73.19;93865.29;1725967;82;21071;-58
2021/04/03 04:37:43;;;;;;;8.65;7.75;;;;;;;2.97;72.99;93877.00;1751548;82;21202;-56
2021/04/03 04:40:14;;;;;;;11.25;9.75;;;;;;;2.89;72.81;93876.38;1751301;82;21178;-56
2021/04/03 04:42:43;;;;;;;14.43;9.73;;;;;;;2.74;72.47;93873.02;1751516;82;21139;-56
2021/04/03 04:45:13;;;;;;;15.95;9.68;;;;;;;2.66;72.70;93877.06;1751536;82;22135;-57
2021/04/03 04:47:41;;;;;;;10.90;9.50;;;;;;;2.74;73.07;93890.66;1751457;82;21092;-56
2021/04/03 04:50:11;;;;;;;11.78;9.40;;;;;;;2.81;72.53;93909.52;1751492;82;21056;-56
2021/04/03 04:52:39;;;;;;;10.60;9.03;;;;;;;2.77;72.56;93909.61;1725920;82;21089;-57
2021/04/03 04:55:12;;;;;;;15.85;10.38;;;;;;;2.73;72.33;93901.35;1751637;82;21591;-60
2021/04/03 04:57:41;;;;;;;20.17;14.45;;;;;;;2.59;72.33;93905.69;1751499;82;21366;-55
2021/04/03 05:00:12;;;;;;;11.85;10.63;;;;;;;2.50;72.69;93898.09;1751139;82;21103;-56
2021/04/03 05:02:48;;;;;;;14.47;12.13;;;;;;;2.44;72.73;93907.12;1749131;82;21095;-56
2021/04/03 05:05:16;;;;;;;25.88;17.12;;;;;;;2.38;72.97;93923.15;1751313;82;21147;-57
2021/04/03 05:07:44;;;;;;;17.27;12.93;;;;;;;2.44;73.18;93926.13;1751444;82;21104;-57
2021/04/03 05:10:13;;;;;;;14.28;11.60;;;;;;;2.52;73.19;93926.19;1751376;82;21393;-56
2021/04/03 05:12:41;;;;;;;14.75;10.60;;;;;;;2.59;72.88;93920.62;1751216;81;21099;-57
2021/04/03 05:15:09;;;;;;;13.75;11.55;;;;;;;2.56;72.87;93917.39;1751205;82;21080;-56
2021/04/03 05:17:37;;;;;;;21.80;16.60;;;;;;;2.53;72.98;93918.22;1755506;81;21574;-56
2021/04/03 05:20:08;;;;;;;12.65;11.12;;;;;;;2.62;73.23;93925.21;1758261;81;21467;-56
2021/04/03 05:22:35;;;;;;;13.85;10.82;;;;;;;2.66;72.95;93915.83;1815520;79;21264;-57
2021/04/03 05:25:05;;;;;;;14.93;11.08;;;;;;;2.65;72.95;93909.47;1815405;79;21323;-56
2021/04/03 05:27:33;;;;;;;12.55;10.48;;;;;;;2.71;73.23;93904.47;1815625;79;21170;-57
2021/04/03 05:30:01;;;;;;;20.12;12.18;;;;;;;2.87;73.31;93904.55;1815623;79;21048;-56
2021/04/03 05:32:30;;;;;;;21.42;13.30;;;;;;;2.99;72.87;93896.35;1815338;79;21052;-56
2021/04/03 05:34:58;;;;;;;19.95;13.03;;;;;;;3.06;72.72;93897.59;1815365;78;21905;-56
2021/04/03 05:37:26;;;;;;;30.10;13.80;;;;;;;3.17;72.78;93904.91;1815558;79;21092;-57
2021/04/03 05:39:55;;;;;;;23.02;14.20;;;;;;;3.27;72.89;93904.67;1815674;79;21520;-56
2021/04/03 05:42:23;;;;;;;18.20;13.65;;;;;;;3.41;72.38;93913.89;1815677;79;21037;-57
2021/04/03 05:44:51;;;;;;;23.18;15.03;;;;;;;3.47;71.97;93918.23;1815588;78;21040;-58
2021/04/03 05:47:19;;;;;;;19.92;14.10;;;;;;;3.49;71.62;93914.67;1815774;79;21402;-57
2021/04/03 05:49:47;;;;;;;17.77;12.73;;;;;;;3.55;71.56;93925.21;1815590;79;21088;-57
2021/04/03 05:52:17;;;;;;;22.13;15.45;;;;;;;3.57;71.10;93926.94;1815599;79;21573;-57
2021/04/03 05:54:45;;;;;;;25.62;15.75;;;;;;;3.56;71.14;93924.05;1786770;79;21127;-56
2021/04/03 05:57:13;;;;;;;17.42;12.58;;;;;;;3.67;71.13;93917.77;1815318;79;21127;-57
2021/04/03 05:59:42;;;;;;;14.20;12.45;;;;;;;3.75;70.77;93920.50;1761253;79;22533;-57
2021/04/03 06:02:11;;;;;;;12.18;10.32;;;;;;;3.85;70.12;93923.56;1786692;79;21048;-57
2021/04/03 06:04:39;;;;;;;18.25;11.40;;;;;;;3.87;69.30;93918.45;1815703;78;20992;-58
2021/04/03 06:07:09;;;;;;;14.60;11.33;;;;;;;3.84;68.99;93924.75;1815739;77;21044;-57
2021/04/03 06:09:37;;;;;;;34.73;15.68;;;;;;;3.82;68.85;93935.88;1815715;79;21092;-58
2021/04/03 06:12:08;;;;;;;22.30;16.52;;;;;;;3.85;69.04;93938.52;1815633;79;21500;-57
2021/04/03 06:14:36;;;;;;;17.40;14.40;;;;;;;3.85;68.61;93945.32;1815597;79;21095;-57
2021/04/03 06:17:04;;;;;;;20.30;13.22;;;;;;;3.85;68.74;93950.77;1786298;79;21186;-57
2021/04/03 06:19:35;;;;;;;19.25;13.50;;;;;;;3.86;68.50;93930.53;1815570;79;21198;-57
2021/04/03 06:22:05;;;;;;;17.90;14.03;;;;;;;3.85;68.80;93920.09;1815817;78;21141;-59
2021/04/03 06:24:37;;;;;;;18.12;13.38;;;;;;;3.97;68.99;93922.89;1815568;79;21370;-57
2021/04/03 06:27:17;;;;;;;17.63;14.33;;;;;;;4.12;68.58;93922.73;1815860;78;21072;-58
2021/04/03 06:29:51;;;;;;;27.70;17.60;;;;;;;4.19;68.76;93908.16;1789122;79;21104;-59
2021/04/03 06:32:35;;;;;;;27.82;18.85;;;;;;;4.21;69.18;93896.27;1815808;79;21040;-57
2021/04/03 06:35:03;;;;;;;25.08;17.12;;;;;;;4.22;69.24;93901.89;1815638;78;21460;-57
2021/04/03 06:37:34;;;;;;;23.73;17.02;;;;;;;4.21;69.11;93902.47;1815793;79;22285;-58
2021/04/03 06:40:13;;;;;;;22.80;17.15;;;;;;;4.30;69.13;93902.64;1815698;79;21084;-58
2021/04/03 06:42:57;;;;;;;20.27;15.35;;;;;;;4.45;68.85;93886.70;1815793;79;21043;-58
2021/04/03 06:45:34;;;;;;;30.02;19.37;;;;;;;4.57;69.17;93879.20;1786535;79;21104;-58
2021/04/03 06:48:08;;;;;;;42.35;18.00;;;;;;;4.73;68.60;93886.71;1815953;79;21433;-58
2021/04/03 06:50:47;;;;;;;20.55;15.60;;;;;;;4.88;67.97;93888.44;1815802;79;21364;-57
2021/04/03 06:53:19;;;;;;;20.10;14.93;;;;;;;4.91;67.19;93891.66;1815488;78;21088;-59
2021/04/03 06:55:49;;;;;;;28.73;17.45;;;;;;;4.83;66.98;93895.18;1815490;79;21040;-60
2021/04/03 06:58:17;;;;;;;38.67;18.15;;;;;;;4.78;66.90;93887.54;1815687;79;21111;-58
2021/04/03 07:00:46;;;;;;;29.65;17.87;;;;;;;4.84;67.29;93895.37;1815620;78;21563;-58
2021/04/03 07:03:24;;;;;;;24.77;17.50;;;;;;;5.00;66.83;93893.17;1815577;79;21369;-58
2021/04/03 07:05:51;;;;;;;31.25;15.23;;;;;;;5.07;66.23;93886.93;1786741;79;21032;-57
2021/04/03 07:08:20;;;;;;;24.20;17.00;;;;;;;5.14;66.21;93894.89;1815289;79;21020;-58
2021/04/03 07:10:55;;;;;;;31.50;18.10;;;;;;;5.17;65.92;93887.20;1815570;78;21169;-58
2021/04/03 07:13:28;;;;;;;25.75;16.90;;;;;;;5.22;66.05;93886.70;1787235;79;21110;-59
2021/04/03 07:16:04;;;;;;;23.87;14.40;;;;;;;5.30;65.40;93898.91;1786278;79;21485;-57
2021/04/03 07:21:20;;;;;;;21.45;13.38;;;;;;;5.18;65.08;93884.65;1776700;78;23291;-59
2021/04/03 07:23:55;;;;;;;21.00;15.18;;;;;;;5.22;65.49;93882.61;1721390;82;21112;-57
2021/04/03 07:26:29;;;;;;;20.57;14.70;;;;;;;5.27;65.65;93880.08;1697429;82;21393;-59
2021/04/03 07:29:08;;;;;;;45.75;27.00;;;;;;;5.25;65.41;93879.01;1749010;82;21080;-57
2021/04/03 07:31:44;;;;;;;31.55;23.62;;;;;;;5.34;65.91;93875.02;1749475;82;21631;-58
2021/04/03 07:34:13;;;;;;;28.85;20.90;;;;;;;5.47;66.35;93882.05;1743277;82;21120;-56
2021/04/03 07:36:47;;;;;;;19.92;15.45;;;;;;;5.67;65.94;93883.18;1719604;83;21105;-58
2021/04/03 07:39:41;;;;;;;23.87;14.63;;;;;;;5.90;64.81;93879.55;1719127;82;20993;-58
2021/04/03 07:42:37;;;;;;;20.82;14.63;;;;;;;6.02;63.80;93870.59;1715648;82;21136;-57
2021/04/03 07:45:44;;;;;;;25.68;14.93;;;;;;;6.06;63.55;93870.47;1690908;83;21112;-59
2021/04/03 07:49:00;;;;;;;25.75;16.05;;;;;;;6.23;63.72;93862.30;1803597;78;22834;-60
2021/04/03 07:51:45;;;;;;;25.45;18.25;;;;;;;6.24;63.87;93870.65;1744591;80;21150;-60
2021/04/03 07:54:34;;;;;;;19.70;14.95;;;;;;;6.39;64.28;93862.93;1818959;77;22585;-60
2021/04/03 07:57:08;;;;;;;34.73;17.17;;;;;;;6.46;63.58;93859.17;1744281;81;21762;-58
2021/04/03 07:59:51;;;;;;;30.95;17.62;;;;;;;6.48;63.17;93859.52;1728076;82;22162;-57
2021/04/03 08:02:30;;;;;;;42.33;21.93;;;;;;;6.46;62.97;93872.83;1708899;82;21212;-59
2021/04/03 08:05:11;;;;;;;40.38;21.97;;;;;;;6.40;63.29;93874.60;1687499;81;21159;-57
2021/04/03 08:07:45;;;;;;;29.37;17.67;;;;;;;6.32;62.90;93876.80;1737484;81;21185;-59
2021/04/03 08:10:18;;;;;;;31.12;19.48;;;;;;;6.26;63.08;93879.16;1732905;81;21468;-60
2021/04/03 08:13:03;;;;;;;28.00;18.20;;;;;;;6.40;62.86;93878.70;1904665;74;22964;-58
2021/04/03 08:15:42;;;;;;;27.67;17.48;;;;;;;6.43;62.62;93873.72;1832682;77;21170;-57
2021/04/03 08:18:12;;;;;;;28.42;17.87;;;;;;;6.37;62.92;93878.22;1819767;77;21935;-58
2021/04/03 08:20:53;;;;;;;29.12;16.70;;;;;;;6.34;63.01;93873.02;1846648;77;21329;-58
2021/04/03 08:23:32;;;;;;;36.50;18.67;;;;;;;6.38;63.37;93873.70;1825977;77;20998;-59
2021/04/03 08:26:03;;;;;;;48.70;17.90;;;;;;;6.43;63.14;93882.69;1821528;77;21192;-57
2021/04/03 08:28:31;;;;;;;31.75;17.32;;;;;;;6.47;62.94;93879.23;1844631;77;21309;-59
2021/04/03 08:31:25;;;;;;;22.50;15.90;;;;;;;6.47;62.75;93874.35;1823471;76;21202;-58
2021/04/03 08:33:55;;;;;;;;;;;;;;;6.46;62.85;93883.75;1814698;77;21191;-58
2021/04/03 08:36:26;;;;;;;31.93;18.37;;;;;;;6.43;62.87;93879.17;1813099;78;20374;-58
2021/04/03 08:38:55;;;;;;;34.40;19.45;;;;;;;6.45;63.11;93879.50;1812614;77;21162;-57
2021/04/03 08:41:25;;;;;;;38.70;23.02;;;;;;;6.44;63.02;93879.34;1812465;79;21412;-58
2021/04/03 08:43:56;;;;;;;34.48;21.17;;;;;;;6.48;62.85;93870.45;1821185;77;21553;-57
2021/04/03 08:46:29;;;;;;;33.30;20.80;;;;;;;6.53;62.68;93876.70;1811826;78;21454;-59
2021/04/03 08:48:59;;;;;;;38.33;21.37;;;;;;;6.62;63.45;93868.57;1818514;76;21080;-59
2021/04/03 08:51:26;;;;;;;26.85;17.67;;;;;;;6.78;64.07;93875.23;1810670;76;21303;-57
2021/04/03 08:56:37;;;;;;;32.33;19.20;;;;;;;7.06;63.43;93881.83;1877951;75;23001;-59
2021/04/03 08:59:16;;;;;;;39.67;20.02;;;;;;;7.10;63.63;93881.87;1771199;80;21418;-59
2021/04/03 09:02:00;;;;;;;28.17;18.40;;;;;;;7.23;63.67;93883.94;1872540;74;23890;-58
2021/04/03 09:04:31;;;;;;;26.10;17.07;;;;;;;7.22;62.91;93885.15;1812160;79;21733;-57
2021/04/03 09:07:05;;;;;;;22.32;16.97;;;;;;;7.27;63.44;93887.30;1785570;77;22529;-60
2021/04/03 09:09:38;;;;;;;22.42;15.40;;;;;;;7.32;63.34;93894.17;1816079;77;21173;-58
2021/04/03 09:12:12;;;;;;;23.10;16.67;;;;;;;7.44;63.29;93896.83;1847294;77;21466;-62
2021/04/03 09:14:45;;;;;;;23.07;15.30;;;;;;;7.51;63.00;93897.18;1847550;77;21908;-58
2021/04/03 09:17:20;;;;;;;18.87;13.45;;;;;;;7.58;62.83;93906.48;1847109;77;21112;-57
2021/04/03 09:19:48;;;;;;;14.07;11.88;;;;;;;7.63;61.71;93908.03;1847664;77;21712;-59
2021/04/03 09:22:19;;;;;;;30.62;14.85;;;;;;;7.64;61.52;93905.45;1846710;77;21073;-58
2021/04/03 09:24:59;;;;;;;15.55;12.33;;;;;;;7.64;61.64;93905.45;1847657;77;21061;-57
2021/04/03 09:27:26;;;;;;;20.50;13.68;;;;;;;7.72;61.59;93908.06;1847674;77;21411;-57
2021/04/03 09:30:07;;;;;;;18.40;14.33;;;;;;;7.81;61.00;93902.66;1847679;77;21033;-58
2021/04/03 09:32:48;;;;;;;19.02;12.58;;;;;;;7.86;60.69;93908.16;1847669;77;21366;-57
2021/04/03 09:35:27;;;;;;;19.95;11.63;;;;;;;7.90;60.32;93904.05;1868922;76;21476;-58
2021/04/03 09:38:02;;;;;;;13.25;11.15;;;;;;;7.96;59.77;93911.84;1883365;76;21079;-57
2021/04/03 09:40:44;;;;;;;17.75;12.55;;;;;;;8.05;59.12;93905.65;1882187;76;21186;-57
2021/04/03 09:43:14;;;;;;;26.62;15.80;;;;;;;8.10;58.89;93909.91;1883396;76;21098;-58
2021/04/03 09:45:45;;;;;;;29.52;17.82;;;;;;;8.06;58.60;93913.40;1884700;76;21186;-57
2021/04/03 09:48:15;;;;;;;24.05;16.15;;;;;;;8.04;58.82;93924.05;1884358;76;21123;-57
2021/04/03 09:50:44;;;;;;;23.20;15.65;;;;;;;8.12;59.46;93920.42;1856102;76;21103;-57
2021/04/03 09:53:12;;;;;;;30.90;15.63;;;;;;;8.22;59.67;93917.91;1884547;76;21068;-56
2021/04/03 09:55:41;;;;;;;30.80;16.55;;;;;;;8.31;59.53;93928.30;1884211;76;21100;-58
2021/04/03 09:58:09;;;;;;;41.60;16.45;;;;;;;8.36;58.86;93920.84;1884384;76;21454;-56
2021/04/03 10:00:37;;;;;;;23.22;15.03;;;;;;;8.41;58.69;93923.61;1883053;75;21068;-57
2021/04/03 10:03:05;;;;;;;29.67;20.17;;;;;;;8.47;58.00;93917.67;1855230;76;21453;-59
2021/04/03 10:05:33;;;;;;;25.85;16.15;;;;;;;8.50;57.48;93920.88;1881995;76;21194;-58
2021/04/03 10:08:02;;;;;;;46.28;21.23;;;;;;;8.58;57.36;93922.88;1881976;76;21079;-57
2021/04/03 10:10:32;;;;;;;22.70;15.03;;;;;;;8.67;57.26;93920.16;1881903;76;21131;-58
2021/04/03 10:13:00;;;;;;;21.12;13.25;;;;;;;8.79;58.36;93920.62;1881263;76;21135;-57
2021/04/03 10:15:30;;;;;;;21.45;16.67;;;;;;;8.72;57.96;93918.19;1881384;76;21555;-57
2021/04/03 10:17:58;;;;;;;29.75;14.73;;;;;;;8.61;58.40;93922.58;1880962;75;21491;-58
2021/04/03 10:20:26;;;;;;;24.57;13.43;;;;;;;8.54;57.30;93927.74;1881218;76;21028;-56
2021/04/03 10:22:56;;;;;;;40.95;15.38;;;;;;;8.44;53.85;93919.33;1881305;76;21252;-58
2021/04/03 10:25:26;;;;;;;21.12;11.28;;;;;;;8.21;53.74;93923.98;1880978;76;21528;-59
2021/04/03 10:27:58;;;;;;;17.73;10.75;;;;;;;7.94;54.85;93920.34;1881055;76;21104;-61
2021/04/03 10:30:31;;;;;;;18.30;10.70;;;;;;;7.80;54.99;93929.09;1881301;76;21207;-57
2021/04/03 10:33:00;;;;;;;30.23;15.23;;;;;;;7.69;55.09;93922.66;1881493;76;21155;-58
2021/04/03 10:35:29;;;;;;;44.30;20.45;;;;;;;7.73;55.80;93923.28;1880622;76;21256;-58
2021/04/03 10:37:57;;;;;;;42.53;18.48;;;;;;;7.80;55.51;93935.35;1881254;76;21064;-57
2021/04/03 10:40:26;;;;;;;17.70;9.78;;;;;;;7.84;54.83;93928.35;1881241;76;21048;-57
2021/04/03 10:42:55;;;;;;;22.55;11.22;;;;;;;7.84;54.59;93933.23;1880891;76;21041;-58
2021/04/03 10:45:23;;;;;;;12.10;8.10;;;;;;;7.89;54.97;93929.91;1881316;76;21083;-56
2021/04/03 10:47:51;;;;;;;10.80;7.35;;;;;;;7.97;54.35;93921.59;1881332;76;21138;-59
2021/04/03 10:50:19;;;;;;;10.43;6.62;;;;;;;8.05;54.12;93922.83;1881277;76;21064;-59
2021/04/03 10:52:47;;;;;;;8.78;6.58;;;;;;;8.13;54.46;93915.88;1881334;76;21063;-58
2021/04/03 10:55:17;;;;;;;12.88;9.20;;;;;;;8.26;54.29;93926.75;1880802;76;21067;-58
2021/04/03 10:57:45;;;;;;;24.55;15.23;;;;;;;8.29;54.67;93925.22;1881519;76;21040;-58
2021/04/03 11:00:14;;;;;;;15.55;10.13;;;;;;;8.30;55.49;93922.66;1880951;75;21193;-57
2021/04/03 11:02:42;;;;;;;35.70;17.95;;;;;;;8.22;55.73;93918.66;1881168;76;21127;-57
2021/04/03 11:05:12;;;;;;;37.28;19.02;;;;;;;8.07;56.00;93918.28;1881501;76;21131;-57
2021/04/03 11:07:41;;;;;;;20.32;12.15;;;;;;;8.01;57.26;93918.10;1881396;76;21606;-59
2021/04/03 11:10:11;;;;;;;25.65;15.83;;;;;;;8.07;57.21;93916.91;1881375;76;21136;-58
2021/04/03 11:12:41;;;;;;;35.38;14.55;;;;;;;8.08;56.54;93918.44;1854601;76;21262;-57
2021/04/03 11:15:12;;;;;;;13.10;9.18;;;;;;;8.03;57.02;93914.92;1881353;76;21198;-57
2021/04/03 11:17:40;;;;;;;13.58;9.55;;;;;;;8.07;57.36;93916.29;1881318;76;21468;-58
2021/04/03 11:20:10;;;;;;;13.62;9.10;;;;;;;8.01;57.04;93910.48;1881177;76;21084;-56
2021/04/03 11:22:39;;;;;;;13.40;9.43;;;;;;;7.97;57.61;93916.11;1881465;76;21606;-59
2021/04/03 11:25:09;;;;;;;21.68;15.72;;;;;;;7.92;57.59;93915.93;1881157;76;21132;-57
2021/04/03 11:27:37;;;;;;;18.00;11.55;;;;;;;7.87;58.61;93923.38;1881693;76;21086;-58
2021/04/03 11:30:14;;;;;;;13.55;11.35;;;;;;;7.86;57.50;93927.33;1881399;76;21098;-58
2021/04/03 11:32:45;;;;;;;30.88;14.28;;;;;;;7.84;57.76;93931.87;1881495;76;21155;-59
2021/04/03 11:35:14;;;;;;;17.87;11.83;;;;;;;7.82;58.49;93932.92;1881273;76;21092;-58
2021/04/03 11:37:45;;;;;;;12.18;8.90;;;;;;;7.81;59.50;93927.88;1880593;76;21564;-57
2021/04/03 11:40:15;;;;;;;11.28;9.50;;;;;;;7.77;59.84;93933.52;1869055;76;21126;-57
2021/04/03 11:42:47;;;;;;;11.33;8.83;;;;;;;7.77;59.99;93940.36;1828232;77;21373;-57
2021/04/03 11:45:17;;;;;;;15.10;12.05;;;;;;;7.69;59.93;93938.33;1828171;78;21141;-59
2021/04/03 11:47:46;;;;;;;17.35;13.00;;;;;;;7.46;60.28;93938.19;1828389;78;21543;-58
2021/04/03 11:50:15;;;;;;;16.70;12.35;;;;;;;7.29;60.98;93936.86;1828796;78;21378;-57
2021/04/03 11:52:44;;;;;;;13.75;11.83;;;;;;;7.20;61.00;93936.80;1827937;78;21399;-58
2021/04/03 11:55:15;;;;;;;16.87;12.80;;;;;;;7.07;61.84;93944.13;1828573;78;21551;-57